createdAt,value
2018-02-09T00:00:07.445Z,1018.84
2018-02-09T00:01:16.367Z,1018.77
2018-02-09T00:02:25.189Z,1018.81
2018-02-09T00:03:34.012Z,1018.77
2018-02-09T00:04:42.835Z,1018.79
2018-02-09T00:05:51.708Z,1018.78
2018-02-09T00:07:00.485Z,1018.77
2018-02-09T00:08:09.306Z,1018.78
2018-02-09T00:09:18.129Z,1018.83
2018-02-09T00:10:26.952Z,1018.77
2018-02-09T00:11:35.775Z,1018.78
2018-02-09T00:12:44.745Z,1018.78
2018-02-09T00:13:53.566Z,1018.8
2018-02-09T00:15:02.391Z,1018.74
2018-02-09T00:16:11.214Z,1018.76
2018-02-09T00:17:20.038Z,1018.75
2018-02-09T00:18:29.232Z,1018.74
2018-02-09T00:19:38.054Z,1018.74
2018-02-09T00:20:46.877Z,1018.73
2018-02-09T00:21:55.702Z,1018.75
2018-02-09T00:23:04.809Z,1018.73
2018-02-09T00:24:13.787Z,1018.71
2018-02-09T00:25:22.605Z,1018.72
2018-02-09T00:26:31.429Z,1018.75
2018-02-09T00:27:40.251Z,1018.78
2018-02-09T00:29:21.233Z,1018.79
2018-02-09T00:30:30.058Z,1018.76
2018-02-09T00:31:38.878Z,1018.8
2018-02-09T00:32:47.700Z,1018.78
2018-02-09T00:33:56.528Z,1018.77
2018-02-09T00:35:05.445Z,1018.75
2018-02-09T00:36:14.266Z,1018.74
2018-02-09T00:37:23.088Z,1018.78
2018-02-09T00:38:31.909Z,1018.74
2018-02-09T00:39:40.733Z,1018.77
2018-02-09T00:40:49.558Z,1018.72
2018-02-09T00:41:58.379Z,1018.72
2018-02-09T00:43:07.200Z,1018.7
2018-02-09T00:44:16.026Z,1018.72
2018-02-09T00:45:24.849Z,1018.68
2018-02-09T00:46:33.771Z,1018.67
2018-02-09T00:47:42.594Z,1018.61
2018-02-09T00:48:51.412Z,1018.64
2018-02-09T00:50:00.509Z,1018.61
2018-02-09T00:51:09.331Z,1018.61
2018-02-09T00:52:18.154Z,1018.56
2018-02-09T00:53:26.976Z,1018.56
2018-02-09T00:54:35.803Z,1018.55
2018-02-09T00:55:44.953Z,1018.55
2018-02-09T00:56:53.774Z,1018.56
2018-02-09T00:58:02.596Z,1018.56
2018-02-09T00:59:11.419Z,1018.56
2018-02-09T01:00:20.240Z,1018.56
2018-02-09T01:01:29.062Z,1018.55
2018-02-09T01:02:37.885Z,1018.52
2018-02-09T01:03:46.759Z,1018.52
2018-02-09T01:04:55.580Z,1018.5
2018-02-09T01:06:04.403Z,1018.49
2018-02-09T01:07:13.225Z,1018.48
2018-02-09T01:08:22.049Z,1018.52
2018-02-09T01:09:30.969Z,1018.5
2018-02-09T01:10:39.797Z,1018.49
2018-02-09T01:11:48.614Z,1018.5
2018-02-09T01:12:57.435Z,1018.45
2018-02-09T01:14:06.530Z,1018.49
2018-02-09T01:15:15.349Z,1018.46
2018-02-09T01:16:24.173Z,1018.5
2018-02-09T01:17:32.996Z,1018.49
2018-02-09T01:18:41.816Z,1018.49
2018-02-09T01:19:50.639Z,1018.47
2018-02-09T01:20:59.560Z,1018.44
2018-02-09T01:22:08.380Z,1018.5
2018-02-09T01:23:17.201Z,1018.51
2018-02-09T01:24:26.024Z,1018.45
2018-02-09T01:25:34.851Z,1018.47
2018-02-09T01:26:43.724Z,1018.49
2018-02-09T01:27:52.546Z,1018.49
2018-02-09T01:29:01.369Z,1018.5
2018-02-09T01:30:10.462Z,1018.49
2018-02-09T01:31:19.284Z,1018.45
2018-02-09T01:32:28.206Z,1018.5
2018-02-09T01:33:37.302Z,1018.46
2018-02-09T01:34:46.124Z,1018.45
2018-02-09T01:35:54.945Z,1018.43
2018-02-09T01:37:03.767Z,1018.4
2018-02-09T01:38:12.740Z,1018.34
2018-02-09T01:39:21.563Z,1018.4
2018-02-09T01:40:30.385Z,1018.35
2018-02-09T01:41:39.210Z,1018.39
2018-02-09T01:42:48.302Z,1018.39
2018-02-09T01:43:57.173Z,1018.36
2018-02-09T01:45:05.948Z,1018.39
2018-02-09T01:46:15.040Z,1018.34
2018-02-09T01:47:23.867Z,1018.34
2018-02-09T01:48:32.690Z,1018.38
2018-02-09T01:49:41.761Z,1018.31
2018-02-09T01:50:50.580Z,1018.36
2018-02-09T01:51:59.402Z,1018.3
2018-02-09T01:53:08.223Z,1018.28
2018-02-09T01:54:17.044Z,1018.29
2018-02-09T01:55:26.016Z,1018.27
2018-02-09T01:56:34.838Z,1018.21
2018-02-09T01:57:43.660Z,1018.24
2018-02-09T01:58:52.481Z,1018.22
2018-02-09T02:00:01.303Z,1018.22
2018-02-09T02:01:10.426Z,1018.23
2018-02-09T02:02:51.307Z,1018.17
2018-02-09T02:04:00.128Z,1018.15
2018-02-09T02:05:08.949Z,1018.12
2018-02-09T02:06:17.779Z,1018.15
2018-02-09T02:07:26.599Z,1018.12
2018-02-09T02:08:35.422Z,1018.08
2018-02-09T02:09:44.249Z,1018.09
2018-02-09T02:10:53.065Z,1018.13
2018-02-09T02:12:02.188Z,1018.12
2018-02-09T02:13:11.009Z,1018.08
2018-02-09T02:14:19.830Z,1018.12
2018-02-09T02:15:28.705Z,1018.09
2018-02-09T02:16:37.524Z,1018.08
2018-02-09T02:17:46.446Z,1018.1
2018-02-09T02:18:55.269Z,1018.07
2018-02-09T02:20:04.090Z,1018.03
2018-02-09T02:21:12.909Z,1017.97
2018-02-09T02:22:21.735Z,1018
2018-02-09T02:23:30.656Z,1017.96
2018-02-09T02:24:39.480Z,1017.93
2018-02-09T02:25:48.302Z,1017.91
2018-02-09T02:26:57.122Z,1017.87
2018-02-09T02:28:05.943Z,1017.88
2018-02-09T02:29:15.065Z,1017.84
2018-02-09T02:30:23.890Z,1017.83
2018-02-09T02:31:32.712Z,1017.85
2018-02-09T02:32:41.533Z,1017.85
2018-02-09T02:33:50.356Z,1017.83
2018-02-09T02:34:59.478Z,1017.79
2018-02-09T02:36:08.305Z,1017.78
2018-02-09T02:37:17.401Z,1017.77
2018-02-09T02:38:26.224Z,1017.8
2018-02-09T02:39:35.044Z,1017.78
2018-02-09T02:40:44.019Z,1017.74
2018-02-09T02:41:52.839Z,1017.79
2018-02-09T02:43:01.936Z,1017.75
2018-02-09T02:44:11.032Z,1017.76
2018-02-09T02:45:19.857Z,1017.74
2018-02-09T02:46:28.824Z,1017.73
2018-02-09T02:47:37.647Z,1017.71
2018-02-09T02:48:46.469Z,1017.66
2018-02-09T02:49:55.569Z,1017.67
2018-02-09T02:51:04.393Z,1017.67
2018-02-09T02:52:13.213Z,1017.61
2018-02-09T02:53:22.035Z,1017.61
2018-02-09T02:54:30.857Z,1017.58
2018-02-09T02:55:39.680Z,1017.59
2018-02-09T02:56:48.503Z,1017.62
2018-02-09T02:57:57.425Z,1017.56
2018-02-09T02:59:06.520Z,1017.59
2018-02-09T03:00:15.344Z,1017.58
2018-02-09T03:01:24.166Z,1017.55
2018-02-09T03:02:32.987Z,1017.53
2018-02-09T03:03:41.911Z,1017.52
2018-02-09T03:04:50.731Z,1017.5
2018-02-09T03:05:59.552Z,1017.54
2018-02-09T03:07:08.373Z,1017.5
2018-02-09T03:08:17.194Z,1017.51
2018-02-09T03:09:26.117Z,1017.51
2018-02-09T03:10:34.939Z,1017.46
2018-02-09T03:11:43.762Z,1017.44
2018-02-09T03:12:52.583Z,1017.43
2018-02-09T03:14:01.404Z,1017.4
2018-02-09T03:15:10.277Z,1017.37
2018-02-09T03:16:19.101Z,1017.37
2018-02-09T03:17:28.198Z,1017.4
2018-02-09T03:18:37.021Z,1017.36
2018-02-09T03:19:45.843Z,1017.38
2018-02-09T03:20:54.767Z,1017.37
2018-02-09T03:22:03.590Z,1017.34
2018-02-09T03:23:12.413Z,1017.34
2018-02-09T03:24:21.507Z,1017.32
2018-02-09T03:25:30.326Z,1017.29
2018-02-09T03:26:39.253Z,1017.25
2018-02-09T03:27:48.074Z,1017.27
2018-02-09T03:28:56.894Z,1017.22
2018-02-09T03:30:05.718Z,1017.22
2018-02-09T03:31:14.547Z,1017.21
2018-02-09T03:32:23.664Z,1017.19
2018-02-09T03:33:32.486Z,1017.18
2018-02-09T03:34:41.306Z,1017.18
2018-02-09T03:35:50.127Z,1017.22
2018-02-09T03:36:58.949Z,1017.16
2018-02-09T03:38:07.871Z,1017.24
2018-02-09T03:39:16.693Z,1017.2
2018-02-09T03:40:25.513Z,1017.19
2018-02-09T03:41:34.335Z,1017.17
2018-02-09T03:42:43.158Z,1017.17
2018-02-09T03:43:52.230Z,1017.15
2018-02-09T03:45:01.052Z,1017.15
2018-02-09T03:46:09.873Z,1017.16
2018-02-09T03:47:18.965Z,1017.15
2018-02-09T03:48:27.788Z,1017.16
2018-02-09T03:49:36.606Z,1017.12
2018-02-09T03:50:45.429Z,1017.16
2018-02-09T03:51:54.797Z,1017.12
2018-02-09T03:53:06.326Z,1017.11
2018-02-09T03:54:15.146Z,1017.11
2018-02-09T03:55:24.018Z,1017.09
2018-02-09T03:56:32.896Z,1017.11
2018-02-09T03:57:41.661Z,1017.1
2018-02-09T03:58:50.482Z,1017.12
2018-02-09T03:59:59.303Z,1017.11
2018-02-09T04:01:08.402Z,1017.11
2018-02-09T04:02:17.223Z,1017.1
2018-02-09T04:03:26.047Z,1017.11
2018-02-09T04:04:34.867Z,1017.07
2018-02-09T04:05:43.692Z,1017.07
2018-02-09T04:06:52.513Z,1017.04
2018-02-09T04:08:01.333Z,1017
2018-02-09T04:09:10.156Z,1016.99
2018-02-09T04:10:18.977Z,1016.98
2018-02-09T04:11:27.797Z,1016.95
2018-02-09T04:12:36.892Z,1016.92
2018-02-09T04:13:45.714Z,1016.92
2018-02-09T04:14:54.535Z,1016.94
2018-02-09T04:16:03.635Z,1016.93
2018-02-09T04:17:12.735Z,1016.88
2018-02-09T04:18:21.658Z,1016.87
2018-02-09T04:19:30.479Z,1016.95
2018-02-09T04:20:39.304Z,1016.85
2018-02-09T04:21:48.395Z,1016.89
2018-02-09T04:22:57.217Z,1016.87
2018-02-09T04:24:06.344Z,1016.81
2018-02-09T04:25:15.164Z,1016.77
2018-02-09T04:26:23.986Z,1016.78
2018-02-09T04:27:32.808Z,1016.8
2018-02-09T04:28:41.629Z,1016.81
2018-02-09T04:29:50.701Z,1016.78
2018-02-09T04:30:59.522Z,1016.75
2018-02-09T04:32:08.615Z,1016.78
2018-02-09T04:33:17.436Z,1016.74
2018-02-09T04:34:26.259Z,1016.73
2018-02-09T04:35:35.081Z,1016.73
2018-02-09T04:36:43.902Z,1016.74
2018-02-09T04:37:52.724Z,1016.72
2018-02-09T04:39:01.820Z,1016.76
2018-02-09T04:40:10.640Z,1016.7
2018-02-09T04:41:19.464Z,1016.74
2018-02-09T04:42:28.289Z,1016.71
2018-02-09T04:43:37.107Z,1016.68
2018-02-09T04:44:45.929Z,1016.7
2018-02-09T04:45:54.755Z,1016.72
2018-02-09T04:47:03.721Z,1016.7
2018-02-09T04:48:12.543Z,1016.69
2018-02-09T04:49:21.366Z,1016.69
2018-02-09T04:50:30.185Z,1016.66
2018-02-09T04:51:39.005Z,1016.68
2018-02-09T04:52:48.198Z,1016.66
2018-02-09T04:53:57.021Z,1016.66
2018-02-09T04:55:05.842Z,1016.64
2018-02-09T04:56:14.661Z,1016.64
2018-02-09T04:57:23.481Z,1016.65
2018-02-09T04:58:32.553Z,1016.64
2018-02-09T04:59:41.372Z,1016.61
2018-02-09T05:00:50.193Z,1016.6
2018-02-09T05:01:59.013Z,1016.61
2018-02-09T05:03:07.833Z,1016.59
2018-02-09T05:04:16.754Z,1016.56
2018-02-09T05:05:25.848Z,1016.59
2018-02-09T05:06:34.670Z,1016.57
2018-02-09T05:07:43.490Z,1016.54
2018-02-09T05:08:52.312Z,1016.55
2018-02-09T05:10:01.235Z,1016.5
2018-02-09T05:11:10.057Z,1016.52
2018-02-09T05:12:18.878Z,1016.5
2018-02-09T05:13:27.739Z,1016.48
2018-02-09T05:14:36.521Z,1016.51
2018-02-09T05:15:45.643Z,1016.54
2018-02-09T05:16:54.463Z,1016.55
2018-02-09T05:18:03.283Z,1016.54
2018-02-09T05:19:12.104Z,1016.5
2018-02-09T05:20:20.925Z,1016.5
2018-02-09T05:21:30.095Z,1016.5
2018-02-09T05:22:38.917Z,1016.46
2018-02-09T05:23:47.736Z,1016.43
2018-02-09T05:24:56.559Z,1016.47
2018-02-09T05:26:05.419Z,1016.42
2018-02-09T05:27:14.298Z,1016.4
2018-02-09T05:28:23.120Z,1016.39
2018-02-09T05:29:31.939Z,1016.42
2018-02-09T05:30:40.760Z,1016.4
2018-02-09T05:31:49.855Z,1016.41
2018-02-09T05:32:58.974Z,1016.39
2018-02-09T05:34:07.800Z,1016.4
2018-02-09T05:35:16.616Z,1016.4
2018-02-09T05:36:25.437Z,1016.39
2018-02-09T05:37:34.308Z,1016.4
2018-02-09T05:38:43.230Z,1016.42
2018-02-09T05:39:52.048Z,1016.44
2018-02-09T05:41:00.871Z,1016.37
2018-02-09T05:42:09.970Z,1016.34
2018-02-09T05:43:18.791Z,1016.35
2018-02-09T05:44:27.911Z,1016.33
2018-02-09T05:45:36.733Z,1016.3
2018-02-09T05:46:45.555Z,1016.25
2018-02-09T05:47:54.374Z,1016.29
2018-02-09T05:49:03.471Z,1016.28
2018-02-09T05:50:12.342Z,1016.26
2018-02-09T05:51:21.166Z,1016.24
2018-02-09T05:52:29.987Z,1016.24
2018-02-09T05:53:38.811Z,1016.3
2018-02-09T05:54:47.632Z,1016.26
2018-02-09T05:55:56.555Z,1016.27
2018-02-09T05:57:05.377Z,1016.25
2018-02-09T05:58:14.230Z,1016.22
2018-02-09T05:59:23.072Z,1016.21
2018-02-09T06:00:32.071Z,1016.24
2018-02-09T06:01:41.045Z,1016.25
2018-02-09T06:02:49.867Z,1016.22
2018-02-09T06:03:58.687Z,1016.18
2018-02-09T06:05:07.519Z,1016.2
2018-02-09T06:06:16.346Z,1016.2
2018-02-09T06:07:25.657Z,1016.19
2018-02-09T06:08:34.481Z,1016.14
2018-02-09T06:09:43.306Z,1016.13
2018-02-09T06:10:52.399Z,1016.13
2018-02-09T06:12:01.227Z,1016.11
2018-02-09T06:13:10.116Z,1016.1
2018-02-09T06:14:18.939Z,1016.1
2018-02-09T06:15:27.762Z,1016.09
2018-02-09T06:16:36.584Z,1016.1
2018-02-09T06:17:45.406Z,1016.13
2018-02-09T06:18:54.801Z,1016.16
2018-02-09T06:20:03.624Z,1016.15
2018-02-09T06:21:12.447Z,1016.12
2018-02-09T06:22:21.553Z,1016.14
2018-02-09T06:23:30.374Z,1016.12
2018-02-09T06:24:39.402Z,1016.11
2018-02-09T06:25:48.223Z,1016.13
2018-02-09T06:26:57.045Z,1016.05
2018-02-09T06:28:05.874Z,1016.11
2018-02-09T06:29:14.963Z,1016.05
2018-02-09T06:30:23.782Z,1016.01
2018-02-09T06:31:33.504Z,1015.99
2018-02-09T06:32:42.338Z,1015.99
2018-02-09T06:33:51.786Z,1015.99
2018-02-09T06:35:00.609Z,1015.99
2018-02-09T06:36:09.434Z,1015.98
2018-02-09T06:37:18.256Z,1015.92
2018-02-09T06:38:27.076Z,1015.96
2018-02-09T06:39:35.899Z,1015.95
2018-02-09T06:40:44.723Z,1015.94
2018-02-09T06:41:53.696Z,1015.93
2018-02-09T06:43:02.522Z,1015.89
2018-02-09T06:44:11.344Z,1015.93
2018-02-09T06:45:20.171Z,1015.94
2018-02-09T06:46:28.999Z,1015.94
2018-02-09T06:47:37.983Z,1015.9
2018-02-09T06:48:46.813Z,1015.93
2018-02-09T06:49:55.634Z,1015.96
2018-02-09T06:51:04.458Z,1015.89
2018-02-09T06:52:13.280Z,1015.96
2018-02-09T06:53:22.403Z,1015.94
2018-02-09T06:54:31.228Z,1015.94
2018-02-09T06:55:40.049Z,1015.96
2018-02-09T06:56:48.872Z,1015.97
2018-02-09T06:57:57.697Z,1015.92
2018-02-09T06:59:06.720Z,1015.94
2018-02-09T07:00:15.542Z,1015.92
2018-02-09T07:01:24.366Z,1015.91
2018-02-09T07:02:33.465Z,1015.92
2018-02-09T07:03:42.562Z,1015.93
2018-02-09T07:04:51.430Z,1015.97
2018-02-09T07:06:00.251Z,1015.92
2018-02-09T07:07:09.076Z,1015.96
2018-02-09T07:08:18.176Z,1015.91
2018-02-09T07:09:26.996Z,1015.93
2018-02-09T07:10:35.968Z,1015.92
2018-02-09T07:11:44.787Z,1015.95
2018-02-09T07:12:53.611Z,1015.9
2018-02-09T07:14:02.436Z,1015.93
2018-02-09T07:15:11.260Z,1015.89
2018-02-09T07:16:20.085Z,1015.84
2018-02-09T07:17:28.905Z,1015.84
2018-02-09T07:18:37.724Z,1015.88
2018-02-09T07:19:46.548Z,1015.83
2018-02-09T07:20:55.373Z,1015.8
2018-02-09T07:22:04.444Z,1015.84
2018-02-09T07:23:13.265Z,1015.86
2018-02-09T07:24:22.088Z,1015.85
2018-02-09T07:25:30.910Z,1015.87
2018-02-09T07:26:39.734Z,1015.84
2018-02-09T07:27:48.710Z,1015.87
2018-02-09T07:28:57.532Z,1015.87
2018-02-09T07:30:06.355Z,1015.86
2018-02-09T07:31:15.176Z,1015.89
2018-02-09T07:32:23.998Z,1015.91
2018-02-09T07:33:33.071Z,1015.89
2018-02-09T07:34:41.892Z,1015.9
2018-02-09T07:35:50.713Z,1015.88
2018-02-09T07:36:59.535Z,1015.85
2018-02-09T07:38:08.360Z,1015.85
2018-02-09T07:39:17.283Z,1015.89
2018-02-09T07:40:26.104Z,1015.84
2018-02-09T07:41:34.927Z,1015.86
2018-02-09T07:42:43.748Z,1015.86
2018-02-09T07:43:52.572Z,1015.87
2018-02-09T07:45:01.497Z,1015.9
2018-02-09T07:46:10.320Z,1015.85
2018-02-09T07:47:19.424Z,1015.88
2018-02-09T07:48:28.247Z,1015.88
2018-02-09T07:49:37.068Z,1015.9
2018-02-09T07:50:46.043Z,1015.9
2018-02-09T07:51:54.866Z,1015.85
2018-02-09T07:53:03.958Z,1015.79
2018-02-09T07:54:12.783Z,1015.81
2018-02-09T07:55:21.608Z,1015.86
2018-02-09T07:56:30.731Z,1015.76
2018-02-09T07:57:39.552Z,1015.81
2018-02-09T07:58:48.378Z,1015.78
2018-02-09T07:59:57.201Z,1015.75
2018-02-09T08:01:06.027Z,1015.79
2018-02-09T08:02:15.048Z,1015.71
2018-02-09T08:03:23.877Z,1015.69
2018-02-09T08:04:32.702Z,1015.67
2018-02-09T08:05:41.523Z,1015.7
2018-02-09T08:06:50.346Z,1015.67
2018-02-09T08:07:59.172Z,1015.67
2018-02-09T08:09:07.992Z,1015.68
2018-02-09T08:10:16.816Z,1015.62
2018-02-09T08:11:25.916Z,1015.62
2018-02-09T08:12:34.738Z,1015.65
2018-02-09T08:13:43.861Z,1015.64
2018-02-09T08:14:52.682Z,1015.59
2018-02-09T08:16:01.505Z,1015.62
2018-02-09T08:17:10.328Z,1015.59
2018-02-09T08:18:19.151Z,1015.56
2018-02-09T08:19:28.074Z,1015.57
2018-02-09T08:20:36.901Z,1015.54
2018-02-09T08:21:45.721Z,1015.48
2018-02-09T08:22:54.547Z,1015.6
2018-02-09T08:24:03.370Z,1015.63
2018-02-09T08:25:12.567Z,1015.62
2018-02-09T08:26:21.392Z,1015.6
2018-02-09T08:27:30.213Z,1015.59
2018-02-09T08:28:39.034Z,1015.57
2018-02-09T08:29:47.858Z,1015.58
2018-02-09T08:30:56.780Z,1015.56
2018-02-09T08:32:05.606Z,1015.58
2018-02-09T08:33:14.429Z,1015.6
2018-02-09T08:34:23.252Z,1015.58
2018-02-09T08:35:32.347Z,1015.57
2018-02-09T08:36:41.320Z,1015.57
2018-02-09T08:37:50.142Z,1015.61
2018-02-09T08:38:58.966Z,1015.62
2018-02-09T08:40:07.788Z,1015.61
2018-02-09T08:41:16.612Z,1015.62
2018-02-09T08:42:25.989Z,1015.61
2018-02-09T08:43:34.812Z,1015.58
2018-02-09T08:44:43.634Z,1015.65
2018-02-09T08:45:52.458Z,1015.61
2018-02-09T08:47:01.288Z,1015.65
2018-02-09T08:48:10.355Z,1015.61
2018-02-09T08:49:19.450Z,1015.59
2018-02-09T08:50:28.274Z,1015.59
2018-02-09T08:51:37.151Z,1015.57
2018-02-09T08:52:46.255Z,1015.55
2018-02-09T08:53:55.326Z,1015.53
2018-02-09T08:55:04.146Z,1015.57
2018-02-09T08:56:12.969Z,1015.52
2018-02-09T08:57:21.794Z,1015.57
2018-02-09T08:58:30.617Z,1015.58
2018-02-09T08:59:39.541Z,1015.59
2018-02-09T09:00:48.364Z,1015.52
2018-02-09T09:01:57.183Z,1015.54
2018-02-09T09:03:06.008Z,1015.55
2018-02-09T09:04:14.835Z,1015.52
2018-02-09T09:05:23.931Z,1015.48
2018-02-09T09:06:32.753Z,1015.49
2018-02-09T09:07:41.576Z,1015.44
2018-02-09T09:08:50.399Z,1015.47
2018-02-09T09:09:59.223Z,1015.45
2018-02-09T09:11:08.052Z,1015.42
2018-02-09T09:12:17.146Z,1015.42
2018-02-09T09:13:25.968Z,1015.43
2018-02-09T09:14:34.790Z,1015.43
2018-02-09T09:15:43.615Z,1015.45
2018-02-09T09:16:52.540Z,1015.4
2018-02-09T09:18:01.364Z,1015.42
2018-02-09T09:19:10.187Z,1015.42
2018-02-09T09:20:19.010Z,1015.4
2018-02-09T09:21:27.836Z,1015.38
2018-02-09T09:22:36.661Z,1015.37
2018-02-09T09:23:45.486Z,1015.38
2018-02-09T09:24:54.308Z,1015.39
2018-02-09T09:26:03.133Z,1015.34
2018-02-09T09:27:11.957Z,1015.33
2018-02-09T09:28:20.831Z,1015.37
2018-02-09T09:29:29.657Z,1015.37
2018-02-09T09:30:38.754Z,1015.39
2018-02-09T09:31:47.578Z,1015.33
2018-02-09T09:32:56.401Z,1015.33
2018-02-09T09:34:05.325Z,1015.32
2018-02-09T09:35:14.149Z,1015.32
2018-02-09T09:36:22.973Z,1015.29
2018-02-09T09:37:31.796Z,1015.29
2018-02-09T09:38:40.618Z,1015.3
2018-02-09T09:39:49.544Z,1015.29
2018-02-09T09:40:58.370Z,1015.24
2018-02-09T09:42:07.195Z,1015.31
2018-02-09T09:43:16.017Z,1015.3
2018-02-09T09:44:24.842Z,1015.3
2018-02-09T09:45:33.668Z,1015.3
2018-02-09T09:46:42.492Z,1015.28
2018-02-09T09:47:51.315Z,1015.3
2018-02-09T09:49:00.412Z,1015.33
2018-02-09T09:50:09.237Z,1015.33
2018-02-09T09:51:18.210Z,1015.32
2018-02-09T09:52:27.037Z,1015.36
2018-02-09T09:53:35.863Z,1015.3
2018-02-09T09:54:44.685Z,1015.29
2018-02-09T09:55:53.510Z,1015.28
2018-02-09T09:57:02.435Z,1015.29
2018-02-09T09:58:11.260Z,1015.26
2018-02-09T09:59:20.084Z,1015.24
2018-02-09T10:00:29.183Z,1015.21
2018-02-09T10:01:38.006Z,1015.19
2018-02-09T10:02:46.930Z,1015.22
2018-02-09T10:03:55.752Z,1015.2
2018-02-09T10:05:04.576Z,1015.2
2018-02-09T10:06:13.408Z,1015.16
2018-02-09T10:07:22.230Z,1015.17
2018-02-09T10:08:31.154Z,1015.1
2018-02-09T10:09:39.982Z,1015.09
2018-02-09T10:10:48.808Z,1015.09
2018-02-09T10:11:57.636Z,1015.05
2018-02-09T10:13:06.461Z,1015.01
2018-02-09T10:14:15.336Z,1015.03
2018-02-09T10:15:24.193Z,1015.06
2018-02-09T10:16:32.990Z,1015.04
2018-02-09T10:17:41.817Z,1015.03
2018-02-09T10:18:50.642Z,1015.07
2018-02-09T10:19:59.568Z,1015.02
2018-02-09T10:21:08.667Z,1015.02
2018-02-09T10:22:17.767Z,1015.01
2018-02-09T10:23:26.595Z,1015
2018-02-09T10:24:35.696Z,1014.98
2018-02-09T10:25:44.620Z,1015
2018-02-09T10:26:53.446Z,1015
2018-02-09T10:28:02.270Z,1015
2018-02-09T10:29:11.099Z,1015
2018-02-09T10:30:19.923Z,1015.01
2018-02-09T10:31:28.999Z,1015
2018-02-09T10:32:37.825Z,1015.01
2018-02-09T10:33:46.651Z,1015.05
2018-02-09T10:34:55.480Z,1015.04
2018-02-09T10:36:04.302Z,1015.04
2018-02-09T10:37:13.279Z,1014.96
2018-02-09T10:38:22.108Z,1014.98
2018-02-09T10:39:30.934Z,1014.98
2018-02-09T10:40:39.762Z,1014.95
2018-02-09T10:41:48.589Z,1014.97
2018-02-09T10:42:57.464Z,1014.97
2018-02-09T10:44:06.290Z,1014.94
2018-02-09T10:45:15.115Z,1014.96
2018-02-09T10:46:23.941Z,1014.92
2018-02-09T10:47:32.768Z,1014.93
2018-02-09T10:48:41.694Z,1014.88
2018-02-09T10:49:50.519Z,1014.9
2018-02-09T10:50:59.346Z,1014.91
2018-02-09T10:52:08.172Z,1014.89
2018-02-09T10:53:16.999Z,1014.9
2018-02-09T10:54:25.876Z,1014.87
2018-02-09T10:55:34.701Z,1014.84
2018-02-09T10:56:43.526Z,1014.88
2018-02-09T10:57:52.350Z,1014.85
2018-02-09T10:59:01.177Z,1014.86
2018-02-09T11:00:10.153Z,1014.88
2018-02-09T11:01:18.980Z,1014.84
2018-02-09T11:02:27.807Z,1014.81
2018-02-09T11:03:36.634Z,1014.8
2018-02-09T11:04:45.459Z,1014.79
2018-02-09T11:05:54.335Z,1014.81
2018-02-09T11:07:03.162Z,1014.8
2018-02-09T11:08:11.988Z,1014.79
2018-02-09T11:09:21.092Z,1014.76
2018-02-09T11:10:29.919Z,1014.82
2018-02-09T11:11:38.745Z,1014.8
2018-02-09T11:12:47.573Z,1014.79
2018-02-09T11:13:56.399Z,1014.75
2018-02-09T11:15:05.260Z,1014.76
2018-02-09T11:16:14.367Z,1014.76
2018-02-09T11:17:23.344Z,1014.77
2018-02-09T11:18:32.171Z,1014.76
2018-02-09T11:19:40.996Z,1014.78
2018-02-09T11:20:49.823Z,1014.8
2018-02-09T11:21:58.652Z,1014.75
2018-02-09T11:23:07.784Z,1014.78
2018-02-09T11:24:16.612Z,1014.77
2018-02-09T11:25:25.439Z,1014.77
2018-02-09T11:26:34.266Z,1014.74
2018-02-09T11:27:43.092Z,1014.74
2018-02-09T11:28:52.070Z,1014.74
2018-02-09T11:30:00.897Z,1014.75
2018-02-09T11:31:09.724Z,1014.77
2018-02-09T11:32:18.549Z,1014.73
2018-02-09T11:33:27.376Z,1014.69
2018-02-09T11:34:36.303Z,1014.73
2018-02-09T11:35:45.130Z,1014.64
2018-02-09T11:36:53.958Z,1014.67
2018-02-09T11:38:02.786Z,1014.65
2018-02-09T11:39:11.612Z,1014.69
2018-02-09T11:40:20.440Z,1014.69
2018-02-09T11:41:29.269Z,1014.65
2018-02-09T11:42:38.095Z,1014.62
2018-02-09T11:43:46.924Z,1014.63
2018-02-09T11:44:55.752Z,1014.6
2018-02-09T11:46:04.737Z,1014.6
2018-02-09T11:47:13.564Z,1014.54
2018-02-09T11:48:22.394Z,1014.61
2018-02-09T11:49:31.254Z,1014.55
2018-02-09T11:50:40.048Z,1014.56
2018-02-09T11:51:49.182Z,1014.53
2018-02-09T11:52:58.009Z,1014.5
2018-02-09T11:54:06.841Z,1014.53
2018-02-09T11:55:15.672Z,1014.52
2018-02-09T11:56:24.833Z,1014.5
2018-02-09T11:57:34.245Z,1014.56
2018-02-09T11:58:43.284Z,1014.5
2018-02-09T11:59:53.251Z,1014.49
2018-02-09T12:01:02.138Z,1014.51
2018-02-09T12:02:11.004Z,1014.48
2018-02-09T12:03:20.228Z,1014.5
2018-02-09T12:04:29.841Z,1014.52
2018-02-09T12:05:38.660Z,1014.54
2018-02-09T12:06:47.490Z,1014.51
2018-02-09T12:07:56.360Z,1014.52
2018-02-09T12:09:05.341Z,1014.47
2018-02-09T12:10:14.170Z,1014.51
2018-02-09T12:11:22.999Z,1014.5
2018-02-09T12:12:31.829Z,1014.49
2018-02-09T12:13:40.659Z,1014.48
2018-02-09T12:14:49.590Z,1014.45
2018-02-09T12:15:58.417Z,1014.52
2018-02-09T12:17:07.246Z,1014.5
2018-02-09T12:18:16.074Z,1014.45
2018-02-09T12:19:25.175Z,1014.46
2018-02-09T12:20:34.204Z,1014.42
2018-02-09T12:21:43.075Z,1014.39
2018-02-09T12:22:51.859Z,1014.38
2018-02-09T12:24:00.689Z,1014.36
2018-02-09T12:25:09.516Z,1014.37
2018-02-09T12:26:18.444Z,1014.36
2018-02-09T12:27:27.274Z,1014.32
2018-02-09T12:28:36.375Z,1014.36
2018-02-09T12:29:45.203Z,1014.36
2018-02-09T12:30:54.032Z,1014.33
2018-02-09T12:32:02.860Z,1014.33
2018-02-09T12:33:11.691Z,1014.31
2018-02-09T12:34:20.519Z,1014.3
2018-02-09T12:35:29.347Z,1014.3
2018-02-09T12:36:38.173Z,1014.32
2018-02-09T12:37:47.108Z,1014.3
2018-02-09T12:38:55.936Z,1014.3
2018-02-09T12:40:04.769Z,1014.26
2018-02-09T12:41:13.593Z,1014.24
2018-02-09T12:42:22.421Z,1014.26
2018-02-09T12:43:31.250Z,1014.19
2018-02-09T12:44:40.080Z,1014.23
2018-02-09T12:45:48.910Z,1014.22
2018-02-09T12:46:57.739Z,1014.21
2018-02-09T12:48:06.573Z,1014.22
2018-02-09T12:49:15.502Z,1014.24
2018-02-09T12:50:24.331Z,1014.22
2018-02-09T12:51:33.162Z,1014.19
2018-02-09T12:52:41.989Z,1014.18
2018-02-09T12:53:50.818Z,1014.2
2018-02-09T12:54:59.748Z,1014.18
2018-02-09T12:56:08.578Z,1014.19
2018-02-09T12:57:17.408Z,1014.19
2018-02-09T12:58:26.237Z,1014.14
2018-02-09T12:59:35.069Z,1014.16
2018-02-09T13:00:43.955Z,1014.17
2018-02-09T13:01:52.791Z,1014.15
2018-02-09T13:03:01.630Z,1014.16
2018-02-09T13:04:10.465Z,1014.12
2018-02-09T13:05:19.295Z,1014.11
2018-02-09T13:06:28.179Z,1014.12
2018-02-09T13:07:37.302Z,1014.07
2018-02-09T13:08:46.164Z,1014.07
2018-02-09T13:09:54.999Z,1014.06
2018-02-09T13:11:03.835Z,1014.05
2018-02-09T13:12:13.217Z,1014.03
2018-02-09T13:13:22.052Z,1014.05
2018-02-09T13:14:31.087Z,1014.01
2018-02-09T13:15:39.918Z,1014
2018-02-09T13:16:49.131Z,1014
2018-02-09T13:17:58.050Z,1014
2018-02-09T13:19:06.886Z,1013.94
2018-02-09T13:20:15.770Z,1013.95
2018-02-09T13:21:24.603Z,1013.93
2018-02-09T13:22:33.439Z,1013.96
2018-02-09T13:23:43.228Z,1013.96
2018-02-09T13:24:52.058Z,1013.93
2018-02-09T13:26:00.894Z,1013.97
2018-02-09T13:27:09.728Z,1013.92
2018-02-09T13:28:18.579Z,1013.95
2018-02-09T13:29:27.587Z,1013.93
2018-02-09T13:30:36.445Z,1013.93
2018-02-09T13:31:45.279Z,1013.99
2018-02-09T13:32:54.142Z,1013.96
2018-02-09T13:34:03.017Z,1013.93
2018-02-09T13:35:11.898Z,1013.94
2018-02-09T13:36:20.778Z,1013.95
2018-02-09T13:37:29.616Z,1013.88
2018-02-09T13:38:38.447Z,1013.97
2018-02-09T13:39:47.279Z,1013.9
2018-02-09T13:40:56.115Z,1013.93
2018-02-09T13:42:05.219Z,1013.91
2018-02-09T13:43:14.051Z,1013.93
2018-02-09T13:44:22.886Z,1013.97
2018-02-09T13:45:31.717Z,1013.93
2018-02-09T13:46:40.702Z,1013.89
2018-02-09T13:47:49.533Z,1013.89
2018-02-09T13:48:58.363Z,1013.94
2018-02-09T13:50:07.194Z,1013.87
2018-02-09T13:51:16.024Z,1013.88
2018-02-09T13:52:24.906Z,1013.87
2018-02-09T13:53:33.740Z,1013.86
2018-02-09T13:54:42.570Z,1013.88
2018-02-09T13:55:51.404Z,1013.84
2018-02-09T13:57:00.505Z,1013.83
2018-02-09T13:58:09.336Z,1013.88